createdAt,value
2023-05-21T00:00:45.873Z,13.46
2023-05-21T00:03:34.277Z,13.49
2023-05-21T00:06:03.888Z,13.53
2023-05-21T00:08:34.277Z,13.61
2023-05-21T00:11:02.217Z,13.66
2023-05-21T00:13:30.307Z,13.71
2023-05-21T00:15:58.366Z,13.77
2023-05-21T00:18:26.627Z,13.82
2023-05-21T00:20:54.699Z,13.85
2023-05-21T00:23:22.606Z,13.90
2023-05-21T00:25:50.581Z,13.96
2023-05-21T00:28:18.600Z,14.00
2023-05-21T00:30:47.542Z,14.04
2023-05-21T00:33:15.829Z,14.06
2023-05-21T00:35:43.991Z,14.10
2023-05-21T00:38:12.045Z,14.12
2023-05-21T00:40:41.443Z,14.13
2023-05-21T00:43:12.114Z,14.12
2023-05-21T00:45:47.565Z,14.08
2023-05-21T00:48:16.090Z,14.00
2023-05-21T00:50:45.008Z,13.89
2023-05-21T00:53:15.422Z,13.78
2023-05-21T00:55:43.807Z,13.65
2023-05-21T00:58:12.179Z,13.55
2023-05-21T01:00:43.305Z,13.46
2023-05-21T01:03:13.000Z,13.38
2023-05-21T01:05:41.177Z,13.31
2023-05-21T01:08:10.416Z,13.26
2023-05-21T01:10:38.564Z,13.21
2023-05-21T01:13:07.380Z,13.15
2023-05-21T01:15:38.422Z,13.09
2023-05-21T01:18:07.814Z,13.05
2023-05-21T01:20:37.715Z,12.98
2023-05-21T01:23:06.441Z,12.91
2023-05-21T01:25:35.467Z,12.86
2023-05-21T01:28:03.730Z,12.80
2023-05-21T01:30:31.933Z,12.76
2023-05-21T01:33:17.453Z,12.74
2023-05-21T01:36:34.682Z,12.73
2023-05-21T01:39:27.718Z,12.72
2023-05-21T01:41:58.137Z,12.72
2023-05-21T01:44:27.410Z,12.74
2023-05-21T01:46:57.826Z,12.79
2023-05-21T01:49:46.672Z,12.86
2023-05-21T01:52:15.215Z,12.92
2023-05-21T01:54:43.252Z,12.99
2023-05-21T01:57:11.325Z,13.07
2023-05-21T01:59:39.462Z,13.15
2023-05-21T02:02:07.480Z,13.20
2023-05-21T02:04:36.073Z,13.21
2023-05-21T02:07:04.197Z,13.20
2023-05-21T02:09:32.834Z,13.20
2023-05-21T02:12:01.579Z,13.18
2023-05-21T02:14:29.895Z,13.13
2023-05-21T02:16:58.032Z,13.10
2023-05-21T02:19:26.167Z,13.05
2023-05-21T02:21:54.298Z,13.01
2023-05-21T02:24:24.432Z,12.98
2023-05-21T02:26:52.495Z,12.96
2023-05-21T02:29:21.094Z,12.92
2023-05-21T02:31:51.377Z,12.86
2023-05-21T02:34:20.863Z,12.80
2023-05-21T02:36:54.827Z,12.72
2023-05-21T02:39:23.115Z,12.64
2023-05-21T02:41:51.119Z,12.59
2023-05-21T02:44:21.004Z,12.52
2023-05-21T02:46:48.977Z,12.46
2023-05-21T02:49:17.571Z,12.39
2023-05-21T02:51:46.489Z,12.35
2023-05-21T02:54:15.264Z,12.29
2023-05-21T02:56:43.270Z,12.24
2023-05-21T02:59:11.349Z,12.20
2023-05-21T03:01:41.365Z,12.15
2023-05-21T03:04:11.705Z,12.11
2023-05-21T03:06:39.682Z,12.09
2023-05-21T03:09:07.528Z,12.05
2023-05-21T03:11:36.862Z,12.02
2023-05-21T03:14:04.923Z,12.01
2023-05-21T03:16:34.929Z,12.01
2023-05-21T03:19:06.201Z,12.03
2023-05-21T03:21:36.917Z,12.06
2023-05-21T03:24:05.973Z,12.08
2023-05-21T03:26:33.950Z,12.11
2023-05-21T03:29:02.416Z,12.16
2023-05-21T03:31:30.576Z,12.21
2023-05-21T03:34:13.331Z,12.29
2023-05-21T03:36:41.880Z,12.36
2023-05-21T03:39:09.985Z,12.46
2023-05-21T03:41:38.064Z,12.53
2023-05-21T03:44:32.640Z,12.63
2023-05-21T03:47:21.518Z,12.77
2023-05-21T03:49:50.813Z,12.87
2023-05-21T03:52:20.247Z,12.95
2023-05-21T03:54:48.390Z,12.94
2023-05-21T03:57:18.697Z,12.96
2023-05-21T03:59:47.354Z,13.05
2023-05-21T04:02:16.092Z,13.12
2023-05-21T04:04:45.702Z,13.20
2023-05-21T04:07:15.772Z,13.27
2023-05-21T04:09:43.782Z,13.33
2023-05-21T04:12:11.874Z,13.39
2023-05-21T04:14:40.169Z,13.42
2023-05-21T04:17:09.163Z,13.47
2023-05-21T04:19:37.454Z,13.53
2023-05-21T04:22:05.775Z,13.60
2023-05-21T04:24:34.656Z,13.66
2023-05-21T04:27:14.473Z,13.73
2023-05-21T04:29:44.231Z,13.82
2023-05-21T04:32:15.346Z,13.88
2023-05-21T04:34:44.400Z,13.91
2023-05-21T04:37:13.017Z,13.94
2023-05-21T04:39:41.231Z,13.97
2023-05-21T04:42:11.217Z,14.02
2023-05-21T04:44:41.195Z,14.08
2023-05-21T04:47:09.231Z,14.13
2023-05-21T04:49:37.353Z,14.21
2023-05-21T04:52:05.331Z,14.27
2023-05-21T04:54:33.572Z,14.34
2023-05-21T04:57:03.115Z,14.38
2023-05-21T04:59:32.125Z,14.44
2023-05-21T05:02:00.226Z,14.51
2023-05-21T05:04:28.388Z,14.60
2023-05-21T05:06:56.849Z,14.71
2023-05-21T05:09:25.324Z,14.81
2023-05-21T05:11:53.928Z,14.94
2023-05-21T05:14:21.879Z,15.05
2023-05-21T05:16:49.989Z,15.15
2023-05-21T05:19:18.603Z,15.27
2023-05-21T05:21:46.735Z,15.40
2023-05-21T05:24:18.282Z,15.51
2023-05-21T05:26:46.485Z,15.67
2023-05-21T05:29:14.624Z,15.85
2023-05-21T05:31:43.174Z,16.02
2023-05-21T05:34:11.221Z,16.17
2023-05-21T05:36:39.760Z,16.28
2023-05-21T05:39:07.954Z,16.39
2023-05-21T05:41:35.930Z,16.49
2023-05-21T05:44:04.296Z,16.64
2023-05-21T05:46:33.095Z,16.75
2023-05-21T05:49:01.166Z,16.81
2023-05-21T05:51:30.332Z,16.85
2023-05-21T05:53:58.317Z,16.92
2023-05-21T05:56:27.027Z,17.03
2023-05-21T05:58:56.108Z,17.13
2023-05-21T06:01:24.889Z,17.21
2023-05-21T06:03:53.269Z,17.31
2023-05-21T06:06:21.422Z,17.41
2023-05-21T06:08:49.538Z,17.50
2023-05-21T06:11:19.079Z,17.59
2023-05-21T06:13:47.310Z,17.66
2023-05-21T06:16:16.482Z,17.72
2023-05-21T06:18:44.707Z,17.78
2023-05-21T06:21:12.702Z,17.86
2023-05-21T06:23:40.946Z,17.93
2023-05-21T06:26:08.963Z,17.98
2023-05-21T06:28:36.980Z,17.98
2023-05-21T06:31:05.509Z,17.96
2023-05-21T06:33:34.035Z,17.92
2023-05-21T06:36:02.232Z,17.96
2023-05-21T06:38:31.154Z,17.96
2023-05-21T06:40:59.695Z,17.97
2023-05-21T06:43:42.924Z,18.03
2023-05-21T06:46:29.679Z,18.13
2023-05-21T06:48:58.471Z,18.24
2023-05-21T06:51:26.454Z,18.34
2023-05-21T06:53:55.629Z,18.44
2023-05-21T06:56:23.679Z,18.51
2023-05-21T06:58:54.696Z,18.53
2023-05-21T07:01:23.545Z,18.58
2023-05-21T07:03:51.667Z,18.69
2023-05-21T07:06:19.704Z,18.83
2023-05-21T07:08:49.833Z,18.91
2023-05-21T07:11:17.816Z,18.99
2023-05-21T07:13:46.617Z,19.11
2023-05-21T07:16:16.881Z,19.21
2023-05-21T07:18:45.198Z,19.27
2023-05-21T07:21:13.319Z,19.34
2023-05-21T07:23:41.237Z,19.38
2023-05-21T07:26:10.679Z,19.46
2023-05-21T07:28:38.631Z,19.61
2023-05-21T07:31:06.797Z,19.70
2023-05-21T07:33:39.024Z,19.79
2023-05-21T07:36:07.267Z,19.85
2023-05-21T07:38:35.244Z,19.95
2023-05-21T07:41:03.160Z,20.08
2023-05-21T07:43:32.239Z,20.20
2023-05-21T07:46:00.406Z,20.31
2023-05-21T07:48:29.087Z,20.38
2023-05-21T07:50:59.185Z,20.46
2023-05-21T07:53:27.476Z,20.55
2023-05-21T07:55:55.805Z,20.61
2023-05-21T07:58:26.065Z,20.71
2023-05-21T08:00:54.176Z,20.84
2023-05-21T08:03:23.180Z,20.90
2023-05-21T08:05:51.523Z,20.90
2023-05-21T08:08:20.372Z,20.83
2023-05-21T08:10:48.379Z,20.78
2023-05-21T08:13:17.255Z,20.86
2023-05-21T08:15:46.788Z,21.02
2023-05-21T08:18:15.198Z,21.19
2023-05-21T08:20:43.885Z,21.25
2023-05-21T08:23:12.503Z,21.27
2023-05-21T08:25:44.513Z,21.34
2023-05-21T08:28:12.474Z,21.46
2023-05-21T08:30:41.618Z,21.61
2023-05-21T08:33:09.613Z,21.72
2023-05-21T08:35:38.018Z,21.80
2023-05-21T08:38:20.248Z,21.85
2023-05-21T08:41:07.921Z,21.88
2023-05-21T08:43:37.858Z,21.95
2023-05-21T08:46:08.518Z,22.02
2023-05-21T08:48:39.118Z,22.06
2023-05-21T08:51:07.191Z,22.08
2023-05-21T08:53:39.283Z,22.10
2023-05-21T08:56:09.835Z,22.20
2023-05-21T08:58:46.806Z,22.30
2023-05-21T09:01:19.435Z,22.36
2023-05-21T09:03:52.645Z,22.36
2023-05-21T09:06:21.642Z,22.36
2023-05-21T09:08:59.290Z,22.43
2023-05-21T09:11:33.168Z,22.59
2023-05-21T09:14:01.887Z,22.68
2023-05-21T09:16:36.816Z,22.69
2023-05-21T09:19:05.319Z,22.67
2023-05-21T09:21:35.471Z,22.67
2023-05-21T09:24:11.582Z,22.68
2023-05-21T09:26:43.438Z,22.78
2023-05-21T09:29:13.445Z,22.84
2023-05-21T09:31:45.381Z,22.97
2023-05-21T09:34:14.764Z,23.05
2023-05-21T09:36:47.228Z,23.16
2023-05-21T09:39:30.042Z,23.29
2023-05-21T09:41:58.972Z,23.45
2023-05-21T09:44:27.485Z,23.57
2023-05-21T09:46:59.631Z,23.65
2023-05-21T09:49:28.320Z,23.70
2023-05-21T09:51:59.810Z,23.78
2023-05-21T09:54:34.627Z,23.90
2023-05-21T09:57:02.947Z,24.02
2023-05-21T09:59:40.096Z,24.15
2023-05-21T10:02:30.042Z,24.22
2023-05-21T10:04:58.755Z,24.27
2023-05-21T10:07:27.548Z,24.26
2023-05-21T10:09:57.950Z,24.32
2023-05-21T10:12:29.192Z,24.23
2023-05-21T10:15:03.285Z,24.17
2023-05-21T10:17:31.529Z,24.25
2023-05-21T10:20:01.468Z,24.28
2023-05-21T10:22:29.965Z,24.37
2023-05-21T10:24:58.835Z,24.47
2023-05-21T10:27:31.329Z,24.54
2023-05-21T10:30:00.540Z,24.66
2023-05-21T10:32:28.818Z,24.82
2023-05-21T10:34:59.309Z,24.96
2023-05-21T10:37:29.667Z,25.10
2023-05-21T10:39:57.681Z,25.11
2023-05-21T10:42:31.765Z,24.96
2023-05-21T10:45:16.179Z,24.75
2023-05-21T10:47:56.561Z,24.67
2023-05-21T10:50:44.841Z,24.52
2023-05-21T10:53:24.892Z,24.40
2023-05-21T10:56:15.644Z,24.50
2023-05-21T10:58:43.547Z,24.64
2023-05-21T11:01:12.786Z,24.71
2023-05-21T11:03:41.040Z,24.80
2023-05-21T11:06:09.296Z,24.90
2023-05-21T11:08:38.968Z,24.93
2023-05-21T11:11:07.240Z,25.02
2023-05-21T11:13:49.879Z,25.12
2023-05-21T11:16:18.557Z,25.17
2023-05-21T11:18:46.684Z,25.24
2023-05-21T11:21:21.051Z,25.35
2023-05-21T11:24:06.643Z,25.50
2023-05-21T11:26:55.251Z,25.54
2023-05-21T11:29:33.549Z,25.64
2023-05-21T11:32:03.018Z,25.66
2023-05-21T11:34:41.812Z,25.58
2023-05-21T11:37:26.933Z,25.55
2023-05-21T11:39:56.332Z,25.62
2023-05-21T11:42:35.045Z,25.82
2023-05-21T11:45:04.173Z,26.01
2023-05-21T11:47:32.669Z,26.20
2023-05-21T11:50:03.462Z,26.36
2023-05-21T11:52:32.891Z,26.66
2023-05-21T11:55:01.142Z,26.94
2023-05-21T11:57:32.440Z,27.00
2023-05-21T12:00:02.425Z,26.81
2023-05-21T12:02:45.613Z,26.56
2023-05-21T12:05:14.194Z,26.25
2023-05-21T12:07:42.750Z,26.01
2023-05-21T12:10:11.423Z,25.88
2023-05-21T12:12:50.588Z,25.72
2023-05-21T12:15:24.448Z,25.54
2023-05-21T12:17:55.560Z,25.46
2023-05-21T12:20:26.292Z,25.42
2023-05-21T12:22:54.471Z,25.34
2023-05-21T12:25:22.753Z,25.26
2023-05-21T12:27:57.913Z,25.28
2023-05-21T12:30:26.496Z,25.48
2023-05-21T12:32:58.488Z,25.69
2023-05-21T12:35:26.592Z,25.80
2023-05-21T12:37:54.858Z,25.93
2023-05-21T12:40:34.467Z,26.09
2023-05-21T12:43:03.206Z,26.29
2023-05-21T12:45:32.443Z,26.44
2023-05-21T12:48:03.654Z,26.48
2023-05-21T12:50:32.953Z,26.48
2023-05-21T12:53:00.955Z,26.48
2023-05-21T12:55:28.964Z,26.53
2023-05-21T12:58:09.171Z,26.45
2023-05-21T13:00:38.117Z,26.31
2023-05-21T13:03:07.066Z,26.15
2023-05-21T13:05:35.804Z,26.13
2023-05-21T13:08:04.085Z,26.21
2023-05-21T13:10:32.118Z,26.28
2023-05-21T13:13:00.278Z,26.32
2023-05-21T13:15:28.555Z,26.40
2023-05-21T13:17:57.868Z,26.53
2023-05-21T13:20:27.626Z,26.63
2023-05-21T13:22:56.362Z,26.63
2023-05-21T13:25:28.830Z,26.64
2023-05-21T13:27:58.132Z,26.52
2023-05-21T13:30:26.641Z,26.52
2023-05-21T13:32:54.950Z,26.54
2023-05-21T13:35:23.016Z,26.55
2023-05-21T13:37:51.136Z,26.58
2023-05-21T13:40:19.430Z,26.62
2023-05-21T13:42:48.524Z,26.68
2023-05-21T13:45:18.890Z,26.64
2023-05-21T13:47:48.177Z,26.65
2023-05-21T13:50:16.686Z,26.71
2023-05-21T13:52:46.093Z,26.79
2023-05-21T13:55:16.154Z,26.86
2023-05-21T13:57:44.990Z,26.76
2023-05-21T14:00:15.454Z,26.64
2023-05-21T14:02:43.968Z,26.58
2023-05-21T14:05:13.060Z,26.56
2023-05-21T14:07:42.171Z,26.49
2023-05-21T14:10:11.245Z,26.43
2023-05-21T14:12:40.614Z,26.42
2023-05-21T14:15:08.887Z,26.47
2023-05-21T14:17:36.788Z,26.53
2023-05-21T14:20:05.489Z,26.52
2023-05-21T14:22:33.532Z,26.39
2023-05-21T14:25:02.113Z,26.26
2023-05-21T14:27:30.368Z,26.18
2023-05-21T14:29:58.372Z,26.13
2023-05-21T14:32:26.891Z,26.17
2023-05-21T14:34:55.403Z,26.23
2023-05-21T14:37:23.367Z,26.32
2023-05-21T14:39:51.524Z,26.34
2023-05-21T14:42:19.548Z,26.24
2023-05-21T14:44:47.491Z,26.18
2023-05-21T14:47:15.645Z,26.09
2023-05-21T14:49:43.664Z,26.06
2023-05-21T14:52:11.777Z,26.10
2023-05-21T14:54:39.759Z,26.10
2023-05-21T14:57:07.688Z,26.13
2023-05-21T14:59:35.674Z,26.19
2023-05-21T15:02:04.286Z,26.28
2023-05-21T15:04:32.736Z,26.38
2023-05-21T15:07:01.787Z,26.50
2023-05-21T15:09:29.729Z,26.64
2023-05-21T15:11:57.763Z,26.69
2023-05-21T15:14:25.888Z,26.63
2023-05-21T15:16:54.826Z,26.33
2023-05-21T15:19:23.006Z,26.02
2023-05-21T15:21:51.820Z,25.59
2023-05-21T15:24:20.771Z,24.72
2023-05-21T15:26:49.716Z,23.52
2023-05-21T15:29:17.858Z,22.52
2023-05-21T15:31:45.854Z,21.91
2023-05-21T15:34:13.908Z,21.59
2023-05-21T15:36:41.994Z,21.43
2023-05-21T15:39:09.922Z,21.38
2023-05-21T15:41:38.260Z,21.39
2023-05-21T15:44:06.815Z,21.47
2023-05-21T15:46:35.937Z,21.56
2023-05-21T15:49:04.385Z,21.62
2023-05-21T15:51:32.503Z,21.65
2023-05-21T15:54:02.696Z,21.68
2023-05-21T15:56:31.675Z,21.71
2023-05-21T15:59:01.693Z,21.74
2023-05-21T16:01:30.005Z,21.76
2023-05-21T16:03:58.598Z,21.77
2023-05-21T16:06:27.863Z,21.78
2023-05-21T16:08:56.675Z,21.77
2023-05-21T16:11:26.702Z,21.76
2023-05-21T16:13:54.830Z,21.76
2023-05-21T16:16:24.720Z,21.82
2023-05-21T16:18:53.525Z,21.84
2023-05-21T16:21:21.624Z,21.82
2023-05-21T16:23:49.821Z,21.80
2023-05-21T16:26:18.721Z,21.79
2023-05-21T16:28:47.755Z,21.78
2023-05-21T16:31:15.948Z,21.76
2023-05-21T16:33:44.776Z,21.68
2023-05-21T16:36:13.126Z,21.61
2023-05-21T16:38:43.543Z,21.50
2023-05-21T16:41:12.096Z,21.37
2023-05-21T16:43:40.331Z,21.28
2023-05-21T16:46:11.251Z,21.21
2023-05-21T16:48:42.696Z,21.15
2023-05-21T16:51:13.777Z,21.10
2023-05-21T16:53:44.344Z,21.06
2023-05-21T16:56:15.791Z,21.06
2023-05-21T16:58:47.729Z,21.07
2023-05-21T17:01:18.780Z,21.03
2023-05-21T17:03:51.121Z,21.00
2023-05-21T17:06:22.775Z,20.92
2023-05-21T17:08:54.783Z,20.85
2023-05-21T17:11:26.757Z,20.76
2023-05-21T17:13:57.930Z,20.70
2023-05-21T17:16:29.813Z,20.63
2023-05-21T17:19:01.791Z,20.58
2023-05-21T17:21:33.789Z,20.54
2023-05-21T17:24:04.329Z,20.51
2023-05-21T17:26:34.841Z,20.48
2023-05-21T17:29:06.815Z,20.45
2023-05-21T17:31:38.294Z,20.42
2023-05-21T17:34:09.775Z,20.41
2023-05-21T17:36:40.800Z,20.40
2023-05-21T17:39:10.244Z,20.37
2023-05-21T17:41:40.786Z,20.33
2023-05-21T17:44:13.786Z,20.29
2023-05-21T17:54:51.404Z,20.04
2023-05-21T17:57:20.314Z,19.97
2023-05-21T17:59:48.558Z,19.93
2023-05-21T18:02:16.517Z,19.87
2023-05-21T18:04:44.527Z,19.79
2023-05-21T18:07:12.423Z,19.71
2023-05-21T18:09:40.476Z,19.63
2023-05-21T18:12:08.584Z,19.57
2023-05-21T18:14:36.492Z,19.51
2023-05-21T18:17:04.698Z,19.44
2023-05-21T18:19:32.860Z,19.38
2023-05-21T18:22:01.008Z,19.32
2023-05-21T18:24:28.975Z,19.27
2023-05-21T18:26:56.950Z,19.21
2023-05-21T18:29:24.831Z,19.15
2023-05-21T18:31:52.962Z,19.11
2023-05-21T18:34:21.038Z,19.06
2023-05-21T18:36:49.193Z,19.02
2023-05-21T18:39:17.167Z,18.97
2023-05-21T18:41:45.103Z,18.91
2023-05-21T18:44:13.049Z,18.86
2023-05-21T18:46:40.996Z,18.82
2023-05-21T18:49:08.924Z,18.79
2023-05-21T18:51:36.925Z,18.77
2023-05-21T18:54:04.970Z,18.75
2023-05-21T18:56:33.033Z,18.73
2023-05-21T18:59:01.175Z,18.70
2023-05-21T19:01:29.399Z,18.66
2023-05-21T19:03:57.483Z,18.62
2023-05-21T19:06:26.449Z,18.57
2023-05-21T19:08:54.478Z,18.50
2023-05-21T19:11:23.616Z,18.43
2023-05-21T19:13:51.791Z,18.38
2023-05-21T19:16:19.791Z,18.32
2023-05-21T19:18:47.870Z,18.29
2023-05-21T19:21:15.882Z,18.26
2023-05-21T19:23:52.582Z,18.22
2023-05-21T19:26:22.933Z,18.18
2023-05-21T19:28:53.857Z,18.14
2023-05-21T19:31:23.368Z,18.10
2023-05-21T19:33:51.567Z,18.05
2023-05-21T19:36:21.125Z,17.99
2023-05-21T19:38:50.377Z,17.94
2023-05-21T19:41:19.901Z,17.91
2023-05-21T19:43:47.783Z,17.88
2023-05-21T19:46:18.300Z,17.82
2023-05-21T19:48:49.505Z,17.73
2023-05-21T19:51:17.675Z,17.64
2023-05-21T19:53:45.625Z,17.54
2023-05-21T19:56:13.555Z,17.42
2023-05-21T19:58:41.710Z,17.33
2023-05-21T20:01:09.810Z,17.28
2023-05-21T20:03:37.836Z,17.29
2023-05-21T20:06:05.927Z,17.31
2023-05-21T20:08:34.043Z,17.32
2023-05-21T20:11:02.202Z,17.31
2023-05-21T20:13:30.067Z,17.28
2023-05-21T20:15:58.065Z,17.26
2023-05-21T20:18:25.989Z,17.24
2023-05-21T20:20:55.226Z,17.23
2023-05-21T20:23:23.180Z,17.22
2023-05-21T20:25:51.212Z,17.21
2023-05-21T20:28:20.623Z,17.18
2023-05-21T20:31:00.068Z,17.17
2023-05-21T20:33:30.326Z,17.16
2023-05-21T20:35:58.524Z,17.16
2023-05-21T20:38:27.097Z,17.15
2023-05-21T20:40:55.313Z,17.14
2023-05-21T20:43:24.476Z,17.11
2023-05-21T20:45:59.732Z,17.06
2023-05-21T20:48:29.516Z,17.01
2023-05-21T20:50:57.994Z,16.94
2023-05-21T20:53:26.855Z,16.86
2023-05-21T20:55:54.963Z,16.78
2023-05-21T20:58:25.870Z,16.72
2023-05-21T21:00:55.305Z,16.67
2023-05-21T21:03:23.687Z,16.60
2023-05-21T21:05:52.833Z,16.52
2023-05-21T21:08:20.791Z,16.44
2023-05-21T21:10:48.774Z,16.39
2023-05-21T21:13:16.879Z,16.32
2023-05-21T21:15:44.861Z,16.26
2023-05-21T21:18:13.053Z,16.21
2023-05-21T21:20:42.755Z,16.17
2023-05-21T21:23:10.748Z,16.12
2023-05-21T21:25:38.819Z,16.06
2023-05-21T21:28:06.878Z,15.98
2023-05-21T21:30:34.849Z,15.92
2023-05-21T21:33:02.957Z,15.85
2023-05-21T21:35:31.172Z,15.78
2023-05-21T21:37:59.303Z,15.72
2023-05-21T21:40:27.840Z,15.69
2023-05-21T21:42:58.862Z,15.68
2023-05-21T21:45:27.029Z,15.66
2023-05-21T21:47:55.114Z,15.65
2023-05-21T21:50:23.620Z,15.63
2023-05-21T21:52:59.485Z,15.58
2023-05-21T21:55:27.559Z,15.54
2023-05-21T21:57:55.994Z,15.52
2023-05-21T22:00:26.890Z,15.50
2023-05-21T22:02:55.463Z,15.49
2023-05-21T22:05:23.648Z,15.47
2023-05-21T22:07:51.779Z,15.44
2023-05-21T22:10:19.794Z,15.42
2023-05-21T22:12:48.343Z,15.40
2023-05-21T22:15:23.973Z,15.38
2023-05-21T22:17:52.194Z,15.36
2023-05-21T22:20:26.102Z,15.34
2023-05-21T22:22:55.403Z,15.29
2023-05-21T22:25:23.791Z,15.25
2023-05-21T22:27:52.357Z,15.20
2023-05-21T22:30:20.317Z,15.18
2023-05-21T22:32:48.459Z,15.15
2023-05-21T22:35:16.749Z,15.14
2023-05-21T22:37:44.760Z,15.14
2023-05-21T22:40:13.023Z,15.15
2023-05-21T22:42:41.485Z,15.15
2023-05-21T22:45:11.830Z,15.13
2023-05-21T22:47:40.057Z,15.12
2023-05-21T22:50:10.254Z,15.10
2023-05-21T22:52:38.406Z,15.07
2023-05-21T22:55:06.526Z,15.03
2023-05-21T22:57:34.778Z,14.98
2023-05-21T23:00:02.850Z,14.92
2023-05-21T23:02:30.923Z,14.89
2023-05-21T23:04:59.259Z,14.86
2023-05-21T23:07:27.203Z,14.83
2023-05-21T23:09:55.122Z,14.81
2023-05-21T23:12:23.281Z,14.80
2023-05-21T23:14:51.351Z,14.80
2023-05-21T23:17:19.473Z,14.81
2023-05-21T23:19:52.445Z,14.82
2023-05-21T23:22:20.563Z,14.82
2023-05-21T23:24:48.745Z,14.80
2023-05-21T23:27:16.806Z,14.79
2023-05-21T23:29:44.750Z,14.80
2023-05-21T23:32:12.706Z,14.81
2023-05-21T23:34:42.075Z,14.82
2023-05-21T23:37:10.168Z,14.83
2023-05-21T23:39:38.133Z,14.83
2023-05-21T23:42:06.641Z,14.83
2023-05-21T23:44:34.736Z,14.82
2023-05-21T23:47:02.904Z,14.80
2023-05-21T23:49:33.096Z,14.78
2023-05-21T23:52:01.739Z,14.77
2023-05-21T23:54:29.743Z,14.76
2023-05-21T23:56:57.717Z,14.74
2023-05-21T23:59:25.671Z,14.72
